Flight Track Log - Related Links

Times and Time Zones

All times are in EDT time to prevent confusion due to time zone crossing. See the N762NC flight status page for this flight to view local times or setup timezone preferences in your user account.

Time Position Orientation Groundspeed Altitude Reporting Facility
EDT Latitude Longitude Course Direction KTS MPH feet Rate Location/Type
Mon 02:06:51 PM 38.0500 -85.7000 191° South 235 270 4,400  Level Louisville TRACON
Mon 02:08:00 PM 37.9584 -86.0998 238° Southwest  Level FlightAware
Mon 02:08:07 PM 38.0286 -85.7950 254° West 228 262 6,900  Level Indianapolis Center
Mon 02:09:00 PM 37.9068 -86.1942 233° Southwest  Level FlightAware
Mon 02:09:09 PM 38.0222 -85.8889 265° West 257 296 8,900  Level Indianapolis Center
Mon 02:10:00 PM 37.8321 -86.2436 189° South  Level FlightAware
Mon 02:10:10 PM 38.0067 -85.9825 258° West 270 311 10,500  Level Indianapolis Center
Mon 02:11:00 PM 37.7414 -86.2647 191° South  Level FlightAware
Mon 02:11:12 PM 37.9750 -86.0897 249° West 317 365 11,700  Level Indianapolis Center
Mon 02:12:00 PM 37.6509 -86.2873 191° South  Level FlightAware
Mon 02:12:14 PM 37.9233 -86.1900 237° Southwest 336 387 13,500  Level Indianapolis Center
Mon 02:13:15 PM 37.8481 -86.2689 220° Southwest 355 409 15,100 1,707 Climbing Indianapolis Center
Mon 02:14:17 PM 37.7303 -86.2828 185° South 370 426 17,000 1,561 Climbing Indianapolis Center
Mon 02:15:18 PM 37.6219 -86.3025 188° South 386 444 18,300 1,366 Climbing Indianapolis Center
Mon 02:16:20 PM 37.5139 -86.3306 192° South 390 449 19,800 1,366 Climbing Indianapolis Center
Mon 02:17:21 PM 37.4022 -86.3569 191° South 400 460 21,100 1,317 Climbing Indianapolis Center
Mon 02:18:23 PM 37.2894 -86.3786 189° South 404 465 22,500 1,268 Climbing Indianapolis Center
Mon 02:19:24 PM 37.1733 -86.3978 187° South 411 473 23,700 1,122 Climbing Indianapolis Center
Mon 02:20:26 PM 37.0531 -86.3625 167° South 434 499 24,800 1,073 Climbing Indianapolis Center
Mon 02:21:27 PM 36.9300 -86.3231 166° South 445 512 25,900 960 Climbing Indianapolis Center
Mon 02:22:06 PM 36.8425 -86.2944 165° South 441 507 26,400 970 Climbing Memphis Center
Mon 02:23:06 PM 36.7203 -86.2567 166° South 447 514 27,500 1,200 Climbing Memphis Center
Mon 02:24:06 PM 36.6022 -86.2189 166° South 447 514 28,800 700 Climbing Memphis Center
Mon 02:25:06 PM 36.4761 -86.1839 167° South 453 521 28,900 100 Climbing Memphis Center
Mon 02:26:06 PM 36.3644 -86.1483 166° South 453 521 29,000 50 Climbing Memphis Center
Mon 02:27:06 PM 36.2358 -86.1114 167° South 460 529 29,000  Level Memphis Center
Mon 02:28:06 PM 36.1117 -86.0717 166° South 467 537 29,000  Level Memphis Center
Mon 02:29:06 PM 35.9914 -86.0292 164° South 458 527 29,000  Level Memphis Center
Mon 02:30:06 PM 35.8583 -85.9850 165° South 453 521 29,000  Level Memphis Center
Mon 02:32:16 PM 35.6122 -85.9061 165° South 464 534 29,000  Level Atlanta Center
Mon 02:33:16 PM 35.4897 -85.8728 168° South 464 534 29,000  Level Atlanta Center
Mon 02:34:16 PM 35.3506 -85.8364 168° South 464 534 29,000 -50 Level Atlanta Center
Mon 02:35:16 PM 35.2422 -85.8139 170° South 464 534 28,900 -100 Descending Atlanta Center
Mon 02:36:16 PM 35.1197 -85.7858 169° South 464 534 28,800 -450 Descending Atlanta Center
Mon 02:37:16 PM 35.0114 -85.7581 168° South 436 502 28,000 -1,150 Descending Atlanta Center
Mon 02:38:16 PM 34.9119 -85.7231 164° South 397 457 26,500 -1,850 Descending Atlanta Center
Mon 02:39:16 PM 34.8206 -85.6733 156° South 369 425 24,300 -1,900 Descending Atlanta Center
Mon 02:40:16 PM 34.7294 -85.6208 155° Southeast 364 419 22,700 -1,650 Descending Atlanta Center
Mon 02:41:16 PM 34.6358 -85.6039 172° South 353 406 21,000 -1,350 Descending Atlanta Center
Mon 02:42:16 PM 34.5419 -85.5947 175° South 347 399 20,000 -450 Descending Atlanta Center
Mon 02:43:16 PM 34.4583 -85.6133 190° South 327 376 20,100  Climbing Atlanta Center
Mon 02:44:16 PM 34.4011 -85.5242 128° Southeast 291 335 20,000 -1,150 Descending Atlanta Center
Mon 02:45:16 PM 34.3522 -85.4025 116° Southeast 321 369 17,800 -2,250 Descending Atlanta Center
Mon 02:46:16 PM 34.3011 -85.3161 126° Southeast 328 377 15,500 -1,800 Descending Atlanta Center
Mon 02:47:16 PM 34.2394 -85.2222 128° Southeast 350 403 14,200 -700 Descending Atlanta Center
Mon 02:48:16 PM 34.1756 -85.1261 129° Southeast 356 410 14,100 -100 Descending Atlanta Center
Mon 02:49:16 PM 34.1117 -85.0375 131° Southeast 361 415 14,000  Descending Atlanta Center
Mon 02:50:16 PM 34.0539 -84.9414 126° Southeast 351 404 14,100 -400 Climbing Atlanta Center
Mon 02:51:16 PM 34.0150 -84.8333 113° Southeast 344 396 13,200 -1,050 Descending Atlanta Center
Mon 02:52:16 PM 33.9444 -84.7550 137° Southeast 344 396 12,000 -550 Descending Atlanta Center
Mon 02:53:16 PM 33.8803 -84.6819 137° Southeast 326 375 12,100  Climbing Atlanta Center
Mon 02:54:11 PM 33.8167 -84.6167 140° Southeast 275 316 12,000 -365 Descending Atlanta TRACON
Mon 02:55:11 PM 33.7667 -84.5500 132° Southeast 274 315 11,400 -1,100 Descending Atlanta TRACON
Mon 02:56:11 PM 33.7333 -84.4667 116° Southeast 296 341 9,800 -1,550 Descending Atlanta TRACON
Mon 02:57:11 PM 33.7333 -84.3667 90° East 283 326 8,300 -1,381 Descending Atlanta TRACON
Mon 02:58:17 PM 33.7333 -84.2667 90° East 270 311 6,900 -1,289 Descending Atlanta TRACON
Mon 02:59:12 PM 33.7333 -84.1833 90° East 264 304 5,700 -991 Descending Atlanta TRACON
Mon 03:00:12 PM 33.7333 -84.1000 90° East 253 291 5,000 -381 Descending Atlanta TRACON
Mon 03:01:18 PM 33.6833 -84.0500 140° Southeast 235 270 4,900  Descending Atlanta TRACON
Mon 03:02:12 PM 33.6500 -84.0833 220° Southwest 235 270 5,000  Climbing Atlanta TRACON
Mon 03:03:12 PM 33.6500 -84.1500 270° West 203 234 4,900 -550 Descending Atlanta TRACON
Mon 03:04:12 PM 33.6500 -84.2167 270° West 190 219 3,900 -950 Descending Atlanta TRACON
Mon 03:05:12 PM 33.6500 -84.2833 270° West 191 220 3,000 -895 Descending Atlanta TRACON
Mon 03:06:06 PM 33.6500 -84.3333 270° West 181 208 2,200 -850 Descending Atlanta TRACON
Mon 03:07:12 PM 33.6500 -84.3833 270° West 145 167 1,300 -818 Descending Atlanta TRACON

Login

Don't have an account? Register now (free) for customized features, flight alerts, and more!